createdAt,value
2022-08-18T00:01:06.239Z,6.07
2022-08-18T00:03:56.612Z,6.53
2022-08-18T00:06:21.062Z,6.10
2022-08-18T00:08:48.347Z,6.45
2022-08-18T00:11:19.778Z,6.63
2022-08-18T00:13:47.070Z,5.97
2022-08-18T00:16:14.347Z,6.32
2022-08-18T00:18:41.619Z,6.75
2022-08-18T00:21:08.917Z,7.30
2022-08-18T00:23:36.304Z,6.50
2022-08-18T00:26:04.672Z,7.20
2022-08-18T00:28:32.068Z,6.78
2022-08-18T00:30:59.438Z,7.25
2022-08-18T00:33:26.889Z,7.30
2022-08-18T00:35:54.258Z,7.40
2022-08-18T00:38:24.188Z,7.30
2022-08-18T00:40:53.372Z,7.60
2022-08-18T00:43:23.457Z,7.35
2022-08-18T00:45:50.738Z,7.53
2022-08-18T00:48:18.836Z,7.68
2022-08-18T00:50:49.171Z,7.57
2022-08-18T00:53:20.657Z,7.35
2022-08-18T00:55:51.350Z,7.65
2022-08-18T00:58:35.666Z,8.00
2022-08-18T01:01:05.562Z,7.07
2022-08-18T01:03:33.937Z,6.85
2022-08-18T01:06:04.065Z,7.15
2022-08-18T01:08:31.792Z,6.78
2022-08-18T01:11:02.546Z,6.57
2022-08-18T01:13:31.715Z,7.00
2022-08-18T01:15:59.095Z,6.68
2022-08-18T01:18:44.915Z,7.30
2022-08-18T01:21:50.955Z,6.80
2022-08-18T01:24:21.953Z,6.80
2022-08-18T01:26:50.649Z,6.80
2022-08-18T01:29:19.768Z,7.72
2022-08-18T01:31:56.302Z,6.50
2022-08-18T01:34:25.736Z,7.05
2022-08-18T01:36:54.266Z,6.60
2022-08-18T01:41:21.929Z,7.13
2022-08-18T01:42:09.344Z,6.82
2022-08-18T01:44:37.003Z,7.07
2022-08-18T01:47:04.473Z,6.60
2022-08-18T01:49:31.855Z,7.13
2022-08-18T01:51:59.135Z,6.22
2022-08-18T01:54:30.224Z,6.57
2022-08-18T01:56:58.138Z,7.00
2022-08-18T01:59:25.489Z,6.30
2022-08-18T02:01:55.763Z,6.13
2022-08-18T02:04:35.464Z,6.40
2022-08-18T02:07:05.463Z,6.50
2022-08-18T02:09:34.519Z,6.65
2022-08-18T02:12:01.898Z,7.00
2022-08-18T02:14:31.384Z,6.30
2022-08-18T02:17:02.164Z,6.65
2022-08-18T02:21:57.172Z,6.65
2022-08-18T02:24:24.511Z,6.25
2022-08-18T02:26:51.778Z,6.07
2022-08-18T02:29:19.063Z,6.25
2022-08-18T02:31:46.395Z,6.68
2022-08-18T02:34:13.645Z,7.10
2022-08-18T02:36:40.958Z,6.57
2022-08-18T02:39:08.253Z,6.55
2022-08-18T02:41:37.019Z,6.72
2022-08-18T02:44:05.008Z,7.50
2022-08-18T02:46:32.425Z,6.63
2022-08-18T02:49:00.483Z,6.53
2022-08-18T02:51:28.041Z,7.45
2022-08-18T02:53:55.442Z,7.07
2022-08-18T02:56:41.575Z,6.68
2022-08-18T02:59:13.737Z,7.30
2022-08-18T03:01:42.819Z,6.72
2022-08-18T03:04:11.910Z,7.30
2022-08-18T03:06:39.889Z,7.25
2022-08-18T03:09:08.518Z,6.95
2022-08-18T03:11:35.973Z,6.65
2022-08-18T03:14:05.438Z,7.30
2022-08-18T03:16:33.347Z,7.03
2022-08-18T03:19:04.372Z,6.63
2022-08-18T03:21:35.000Z,7.30
2022-08-18T03:24:02.989Z,7.40
2022-08-18T03:26:36.764Z,6.90
2022-08-18T03:29:04.053Z,7.13
2022-08-18T03:31:31.622Z,7.15
2022-08-18T03:34:01.664Z,6.70
2022-08-18T03:36:31.977Z,7.28
2022-08-18T03:38:59.606Z,6.88
2022-08-18T03:41:58.838Z,7.70
2022-08-18T03:44:15.675Z,7.72
2022-08-18T03:46:44.222Z,7.32
2022-08-18T03:49:11.643Z,7.60
2022-08-18T03:51:39.148Z,7.45
2022-08-18T03:54:07.482Z,7.65
2022-08-18T03:56:36.396Z,7.53
2022-08-18T03:59:08.035Z,7.38
2022-08-18T04:01:39.366Z,7.65
2022-08-18T04:04:08.348Z,7.57
2022-08-18T04:06:39.477Z,7.53
2022-08-18T04:11:36.492Z,7.72
2022-08-18T04:14:05.270Z,7.28
2022-08-18T04:16:33.060Z,7.53
2022-08-18T04:19:03.352Z,7.88
2022-08-18T04:21:35.438Z,7.68
2022-08-18T04:24:05.225Z,7.43
2022-08-18T04:26:33.470Z,7.15
2022-08-18T04:29:01.799Z,6.70
2022-08-18T04:31:29.847Z,7.32
2022-08-18T04:33:58.560Z,7.05
2022-08-18T04:36:26.208Z,6.93
2022-08-18T04:38:54.220Z,8.13
2022-08-18T04:41:27.884Z,7.47
2022-08-18T04:43:58.655Z,7.63
2022-08-18T04:46:26.878Z,7.00
2022-08-18T04:48:59.316Z,7.38
2022-08-18T04:52:26.585Z,7.28
2022-08-18T04:54:16.263Z,7.75
2022-08-18T04:56:43.697Z,7.63
2022-08-18T04:59:12.966Z,7.32
2022-08-18T05:01:49.122Z,7.20
2022-08-18T05:04:17.326Z,8.15
2022-08-18T05:06:46.167Z,7.90
2022-08-18T05:09:16.772Z,7.78
2022-08-18T05:11:51.134Z,7.80
2022-08-18T05:23:37.327Z,7.30
2022-08-18T05:26:27.912Z,6.60
2022-08-18T05:42:25.111Z,7.13
2022-08-18T06:10:03.112Z,7.38
2022-08-18T06:12:47.188Z,7.38
2022-08-18T06:15:39.590Z,7.70
2022-08-18T06:18:32.372Z,6.88
2022-08-18T06:24:45.241Z,7.13
2022-08-18T06:27:23.428Z,7.20
2022-08-18T06:30:07.685Z,6.68
2022-08-18T06:32:44.930Z,6.55
2022-08-18T06:35:12.251Z,7.03
2022-08-18T06:38:17.118Z,6.60
2022-08-18T06:40:44.442Z,7.10
2022-08-18T06:43:15.916Z,6.70
2022-08-18T06:45:44.972Z,6.80
2022-08-18T06:48:18.214Z,6.95
2022-08-18T06:50:51.514Z,6.20
2022-08-18T06:53:28.043Z,6.50
2022-08-18T06:55:56.145Z,6.43
2022-08-18T06:58:27.107Z,6.47
2022-08-18T07:00:55.112Z,6.25
2022-08-18T07:03:25.655Z,5.38
2022-08-18T07:06:04.062Z,6.47
2022-08-18T07:08:32.323Z,6.68
2022-08-18T07:11:12.395Z,6.80
2022-08-18T07:13:42.127Z,6.00
2022-08-18T07:16:34.531Z,5.55
2022-08-18T07:19:09.181Z,6.07
2022-08-18T07:21:38.178Z,5.32
2022-08-18T07:24:25.024Z,5.80
2022-08-18T07:27:08.079Z,5.35
2022-08-18T07:29:37.428Z,5.13
2022-08-18T07:32:15.868Z,5.18
2022-08-18T07:34:53.746Z,5.40
2022-08-18T07:37:30.068Z,5.72
2022-08-18T07:40:00.651Z,5.50
2022-08-18T07:45:12.839Z,5.78
2022-08-18T07:47:50.766Z,5.90
2022-08-18T07:50:36.345Z,5.85
2022-08-18T07:53:20.975Z,6.20
2022-08-18T07:55:52.407Z,6.00
2022-08-18T07:58:28.782Z,5.68
2022-08-18T08:01:00.161Z,5.65
2022-08-18T08:03:51.224Z,5.63
2022-08-18T08:08:53.098Z,5.45
2022-08-18T08:11:20.403Z,5.85
2022-08-18T08:13:56.369Z,6.20
2022-08-18T08:16:35.622Z,6.45
2022-08-18T08:19:11.225Z,6.32
2022-08-18T08:21:41.714Z,6.53
2022-08-18T08:24:12.249Z,7.13
2022-08-18T08:29:06.805Z,6.28
2022-08-18T08:31:39.323Z,6.60
2022-08-18T08:34:19.555Z,6.65
2022-08-18T08:36:47.728Z,6.60
2022-08-18T08:39:18.863Z,7.30
2022-08-18T08:42:29.711Z,6.60
2022-08-18T08:45:00.035Z,6.22
2022-08-18T08:47:32.370Z,6.45
2022-08-18T08:50:03.135Z,5.50
2022-08-18T08:52:32.798Z,5.50
2022-08-18T08:55:16.173Z,5.23
2022-08-18T08:58:01.643Z,5.32
2022-08-18T09:00:29.668Z,5.40
2022-08-18T09:03:02.751Z,5.50
2022-08-18T09:05:31.597Z,5.55
2022-08-18T09:08:17.801Z,5.47
2022-08-18T09:10:57.364Z,5.90
2022-08-18T09:13:53.626Z,5.57
2022-08-18T09:16:29.641Z,5.25
2022-08-18T09:19:15.963Z,5.30
2022-08-18T09:21:59.689Z,5.82
2022-08-18T09:24:40.463Z,5.55
2022-08-18T09:27:16.636Z,5.13
2022-08-18T09:29:52.709Z,5.50
2022-08-18T09:32:23.998Z,5.25
2022-08-18T09:35:12.691Z,5.07
2022-08-18T09:38:11.423Z,5.43
2022-08-18T09:41:04.599Z,5.32
2022-08-18T09:43:54.626Z,5.13
2022-08-18T09:46:40.426Z,4.93
2022-08-18T09:49:38.265Z,5.67
2022-08-18T09:52:26.339Z,5.50
2022-08-18T09:54:59.542Z,5.28
2022-08-18T09:57:28.697Z,5.90
2022-08-18T09:59:57.701Z,5.20
2022-08-18T10:02:28.477Z,5.53
2022-08-18T10:05:11.550Z,5.68
2022-08-18T10:07:43.391Z,6.80
2022-08-18T10:11:01.608Z,5.40
2022-08-18T10:13:24.848Z,5.13
2022-08-18T10:16:11.582Z,4.93
2022-08-18T10:18:44.809Z,5.43
2022-08-18T10:21:22.771Z,5.35
2022-08-18T10:24:08.186Z,4.90
2022-08-18T10:26:54.731Z,5.45
2022-08-18T10:29:26.149Z,5.30
2022-08-18T10:31:59.903Z,5.68
2022-08-18T10:34:51.840Z,5.00
2022-08-18T10:37:34.973Z,5.50
2022-08-18T10:40:02.539Z,5.63
2022-08-18T10:42:34.124Z,5.60
2022-08-18T10:45:07.748Z,6.20
2022-08-18T10:47:37.277Z,5.72
2022-08-18T10:50:09.366Z,5.55
2022-08-18T10:52:45.895Z,5.72
2022-08-18T10:55:25.148Z,6.15
2022-08-18T10:58:30.940Z,5.45
2022-08-18T11:01:30.900Z,6.30
2022-08-18T11:04:28.443Z,5.50
2022-08-18T11:07:07.717Z,5.53
2022-08-18T11:09:35.632Z,5.95
2022-08-18T11:12:09.050Z,5.75
2022-08-18T11:14:43.245Z,5.40
2022-08-18T11:17:16.525Z,5.75
2022-08-18T11:19:45.132Z,5.43
2022-08-18T11:22:33.333Z,5.37
2022-08-18T11:25:03.297Z,5.22
2022-08-18T11:27:35.822Z,5.13
2022-08-18T11:30:05.625Z,5.32
2022-08-18T11:32:42.466Z,5.93
2022-08-18T11:35:24.403Z,5.10
2022-08-18T11:37:57.106Z,5.30
2022-08-18T11:41:09.028Z,5.10
2022-08-18T11:43:24.674Z,5.35
2022-08-18T11:45:58.014Z,5.28
2022-08-18T11:48:50.869Z,5.00
2022-08-18T11:51:34.650Z,5.30
2022-08-18T11:54:05.194Z,5.22
2022-08-18T11:56:35.984Z,5.10
2022-08-18T11:59:54.593Z,5.00
2022-08-18T12:02:25.589Z,5.03
2022-08-18T12:04:54.871Z,5.00
2022-08-18T12:07:32.195Z,5.00
2022-08-18T12:10:21.182Z,5.00
2022-08-18T12:12:55.624Z,5.35
2022-08-18T12:15:29.585Z,5.37
2022-08-18T12:18:18.795Z,4.90
2022-08-18T12:20:53.893Z,4.90
2022-08-18T12:23:21.368Z,5.13
2022-08-18T12:25:51.599Z,5.47
2022-08-18T12:28:19.671Z,5.03
2022-08-18T12:30:56.301Z,5.10
2022-08-18T12:33:25.443Z,5.00
2022-08-18T12:35:53.306Z,4.90
2022-08-18T12:38:20.599Z,5.60
2022-08-18T12:40:48.012Z,5.03
2022-08-18T12:43:15.565Z,5.50
2022-08-18T12:45:43.831Z,5.03
2022-08-18T12:48:12.040Z,6.05
2022-08-18T12:53:30.834Z,4.20
2022-08-18T12:56:26.550Z,4.85
2022-08-18T12:58:55.577Z,4.28
2022-08-18T13:01:23.397Z,4.15
2022-08-18T13:04:03.651Z,4.40
2022-08-18T13:06:41.233Z,4.72
2022-08-18T13:09:42.834Z,4.65
2022-08-18T13:12:14.595Z,4.68
2022-08-18T13:14:43.455Z,4.40
2022-08-18T13:17:28.923Z,4.63
2022-08-18T13:19:58.447Z,4.80
2022-08-18T13:22:32.551Z,5.03
2022-08-18T13:25:01.030Z,4.80
2022-08-18T13:27:30.940Z,4.68
2022-08-18T13:30:02.742Z,5.13
2022-08-18T13:32:58.833Z,4.80
2022-08-18T13:35:35.525Z,5.28
2022-08-18T13:38:17.048Z,5.18
2022-08-18T13:40:49.094Z,4.70
2022-08-18T13:43:17.743Z,5.03
2022-08-18T13:45:48.126Z,5.07
2022-08-18T13:48:21.595Z,4.65
2022-08-18T13:50:52.731Z,4.90
2022-08-18T13:53:22.038Z,5.45
2022-08-18T13:55:49.667Z,4.80
2022-08-18T13:58:21.119Z,5.13
2022-08-18T14:00:54.024Z,5.35
2022-08-18T14:03:42.846Z,5.38
2022-08-18T14:06:13.280Z,4.95
2022-08-18T14:08:41.287Z,5.05
2022-08-18T14:11:09.127Z,5.05
2022-08-18T14:13:38.309Z,5.07
2022-08-18T14:16:19.067Z,4.55
2022-08-18T14:19:10.114Z,5.00
2022-08-18T14:22:00.026Z,4.75
2022-08-18T14:24:48.764Z,4.97
2022-08-18T14:27:16.830Z,5.10
2022-08-18T14:29:47.796Z,5.60
2022-08-18T14:32:18.175Z,5.13
2022-08-18T14:35:33.866Z,5.03
2022-08-18T14:37:48.325Z,4.93
2022-08-18T14:40:16.325Z,5.10
2022-08-18T14:42:55.058Z,5.15
2022-08-18T14:45:31.698Z,4.80
2022-08-18T14:48:06.609Z,5.43
2022-08-18T14:50:35.224Z,5.10
2022-08-18T14:53:02.642Z,5.07
2022-08-18T14:55:30.524Z,5.07
2022-08-18T14:57:59.395Z,5.18
2022-08-18T15:00:27.528Z,5.65
2022-08-18T15:02:54.975Z,5.43
2022-08-18T15:05:24.349Z,5.20
2022-08-18T15:07:52.397Z,5.20
2022-08-18T15:10:23.308Z,5.57
2022-08-18T15:12:55.097Z,5.38
2022-08-18T15:15:22.849Z,5.35
2022-08-18T15:17:52.955Z,5.07
2022-08-18T15:20:23.977Z,5.57
2022-08-18T15:23:18.399Z,5.43
2022-08-18T15:25:52.562Z,5.60
2022-08-18T15:28:21.461Z,5.50
2022-08-18T15:31:16.507Z,5.65
2022-08-18T15:33:40.459Z,5.30
2022-08-18T15:36:10.313Z,5.55
2022-08-18T15:38:43.394Z,5.57
2022-08-18T15:41:10.764Z,5.80
2022-08-18T15:43:39.982Z,5.68
2022-08-18T15:46:13.979Z,5.95
2022-08-18T15:48:44.081Z,6.20
2022-08-18T15:51:12.181Z,6.05
2022-08-18T15:53:44.740Z,5.50
2022-08-18T15:56:20.848Z,5.18
2022-08-18T15:58:48.503Z,5.80
2022-08-18T16:01:30.223Z,6.00
2022-08-18T16:03:58.637Z,6.18
2022-08-18T16:06:27.520Z,5.82
2022-08-18T16:08:55.962Z,6.45
2022-08-18T16:11:29.643Z,6.28
2022-08-18T16:13:58.954Z,6.38
2022-08-18T16:16:35.876Z,6.28
2022-08-18T16:19:04.422Z,6.53
2022-08-18T16:21:31.819Z,6.22
2022-08-18T16:23:59.124Z,6.63
2022-08-18T16:26:26.466Z,6.97
2022-08-18T16:28:54.221Z,6.78
2022-08-18T16:31:26.227Z,7.22
2022-08-18T16:33:54.608Z,7.18
2022-08-18T16:36:25.440Z,7.53
2022-08-18T16:38:53.713Z,7.70
2022-08-18T16:41:23.390Z,8.60
2022-08-18T16:43:50.714Z,7.80
2022-08-18T16:46:21.406Z,7.80
2022-08-18T16:48:50.294Z,8.27
2022-08-18T16:51:19.881Z,8.40
2022-08-18T16:53:47.633Z,7.72
2022-08-18T16:56:16.252Z,8.18
2022-08-18T16:59:02.129Z,7.97
2022-08-18T17:01:49.220Z,8.07
2022-08-18T17:04:20.626Z,8.35
2022-08-18T17:06:48.252Z,8.23
2022-08-18T17:09:16.124Z,8.48
2022-08-18T17:11:48.196Z,8.70
2022-08-18T17:14:19.707Z,8.77
2022-08-18T17:16:47.534Z,8.77
2022-08-18T17:19:14.852Z,8.68
2022-08-18T17:21:42.176Z,8.25
2022-08-18T17:24:11.482Z,8.98
2022-08-18T17:26:49.494Z,9.20
2022-08-18T17:29:22.289Z,8.70
2022-08-18T17:31:53.497Z,9.00
2022-08-18T17:34:23.409Z,8.50
2022-08-18T17:36:55.981Z,8.83
2022-08-18T17:39:26.196Z,9.23
2022-08-18T17:42:12.346Z,8.75
2022-08-18T17:44:46.293Z,9.00
2022-08-18T17:47:21.697Z,9.20
2022-08-18T17:50:26.698Z,9.55
2022-08-18T17:52:59.292Z,9.13
2022-08-18T17:55:29.166Z,9.00
2022-08-18T17:58:25.699Z,9.07
2022-08-18T18:00:53.011Z,9.38
2022-08-18T18:03:20.351Z,9.18
2022-08-18T18:06:01.065Z,9.43
2022-08-18T18:08:46.885Z,9.30
2022-08-18T18:11:14.207Z,9.55
2022-08-18T18:13:41.619Z,8.98
2022-08-18T18:16:24.396Z,9.18
2022-08-18T18:19:03.339Z,9.48
2022-08-18T18:22:00.458Z,9.57
2022-08-18T18:24:24.170Z,9.48
2022-08-18T18:26:52.361Z,9.20
2022-08-18T18:29:19.639Z,9.32
2022-08-18T18:32:07.181Z,9.15
2022-08-18T18:34:34.909Z,9.45
2022-08-18T18:37:03.113Z,9.65
2022-08-18T18:39:33.791Z,9.43
2022-08-18T18:42:15.002Z,10.18
2022-08-18T18:44:51.699Z,10.13
2022-08-18T18:47:27.936Z,10.00
2022-08-18T18:50:03.583Z,10.35
2022-08-18T18:52:30.899Z,10.50
2022-08-18T18:55:02.579Z,10.50
2022-08-18T18:58:08.242Z,10.18
2022-08-18T19:00:53.557Z,9.82
2022-08-18T19:03:42.653Z,10.43
2022-08-18T19:06:30.269Z,10.52
2022-08-18T19:09:16.437Z,10.25
2022-08-18T19:11:57.663Z,10.23
2022-08-18T19:14:28.789Z,10.60
2022-08-18T19:17:13.601Z,10.40
2022-08-18T19:20:01.126Z,10.20
2022-08-18T19:22:40.658Z,10.30
2022-08-18T19:25:21.057Z,10.48
2022-08-18T19:28:00.771Z,10.73
2022-08-18T19:30:28.430Z,10.43
2022-08-18T19:32:58.320Z,10.35
2022-08-18T19:38:14.854Z,9.88
2022-08-18T19:40:51.285Z,10.55
2022-08-18T19:43:33.980Z,10.90
2022-08-18T19:46:01.241Z,10.57
2022-08-18T19:48:31.680Z,10.73
2022-08-18T19:51:05.031Z,11.02
2022-08-18T19:53:35.458Z,10.75
2022-08-18T19:56:22.485Z,10.80
2022-08-18T19:59:15.246Z,10.60
2022-08-18T20:01:48.297Z,10.43
2022-08-18T20:04:25.690Z,10.63
2022-08-18T20:06:58.867Z,11.07
2022-08-18T20:09:45.054Z,11.40
2022-08-18T20:12:31.055Z,10.73
2022-08-18T20:15:00.252Z,10.07
2022-08-18T20:17:27.638Z,10.77
2022-08-18T20:19:57.778Z,11.25
2022-08-18T20:22:25.420Z,10.20
2022-08-18T20:25:06.242Z,10.73
2022-08-18T20:27:41.354Z,10.20
2022-08-18T20:30:08.915Z,11.52
2022-08-18T20:32:36.692Z,10.35
2022-08-18T20:35:16.166Z,10.38
2022-08-18T20:37:43.672Z,10.55
2022-08-18T20:40:31.029Z,9.57
2022-08-18T20:43:07.982Z,10.73
2022-08-18T20:45:36.402Z,10.27
2022-08-18T20:48:12.715Z,10.70
2022-08-18T20:50:43.062Z,11.67
2022-08-18T20:53:32.688Z,11.30
2022-08-18T20:56:32.311Z,11.00
2022-08-18T20:59:21.801Z,11.30
2022-08-18T21:02:01.532Z,11.30
2022-08-18T21:04:38.172Z,10.50
2022-08-18T21:07:15.954Z,10.52
2022-08-18T21:09:49.145Z,12.30
2022-08-18T21:12:22.757Z,10.52
2022-08-18T21:14:54.464Z,10.68
2022-08-18T21:17:24.110Z,11.25
2022-08-18T21:19:51.577Z,12.93
2022-08-18T21:22:19.629Z,10.85
2022-08-18T21:24:50.272Z,12.80
2022-08-18T21:27:17.520Z,11.23
2022-08-18T21:29:49.490Z,12.82
2022-08-18T21:32:19.566Z,12.02
2022-08-18T21:34:47.220Z,10.35
2022-08-18T21:37:15.369Z,12.18
2022-08-18T21:39:48.949Z,11.68
2022-08-18T21:42:31.802Z,11.52
2022-08-18T21:45:01.236Z,11.18
2022-08-18T21:47:33.404Z,10.90
2022-08-18T21:50:04.143Z,12.82
2022-08-18T21:52:32.045Z,10.77
2022-08-18T21:55:02.851Z,11.40
2022-08-18T21:57:47.514Z,10.77
2022-08-18T22:00:17.216Z,10.70
2022-08-18T22:02:44.975Z,10.63
2022-08-18T22:05:12.846Z,10.95
2022-08-18T22:07:47.380Z,11.32
2022-08-18T22:10:44.842Z,10.80
2022-08-18T22:13:38.978Z,10.80
2022-08-18T22:16:41.703Z,11.80
2022-08-18T22:19:20.809Z,10.52
2022-08-18T22:21:58.304Z,10.35
2022-08-18T22:24:37.596Z,10.77
2022-08-18T22:27:08.759Z,10.85
2022-08-18T22:29:45.473Z,10.68
2022-08-18T22:32:13.791Z,10.10
2022-08-18T22:34:41.530Z,10.63
2022-08-18T22:37:11.052Z,10.88
2022-08-18T22:39:52.456Z,11.02
2022-08-18T22:42:20.940Z,10.95
2022-08-18T22:44:48.300Z,14.38
2022-08-18T22:47:15.654Z,11.05
2022-08-18T22:49:43.620Z,10.75
2022-08-18T22:52:17.129Z,10.50
2022-08-18T22:54:44.394Z,11.35
2022-08-18T22:57:11.698Z,11.00
2022-08-18T22:59:42.716Z,11.35
2022-08-18T23:02:11.349Z,11.27
2022-08-18T23:04:38.655Z,10.98
2022-08-18T23:07:06.034Z,10.20
2022-08-18T23:09:33.859Z,11.10
2022-08-18T23:12:10.713Z,11.52
2022-08-18T23:14:38.721Z,10.75
2022-08-18T23:17:07.223Z,10.75
2022-08-18T23:19:34.758Z,10.95
2022-08-18T23:22:02.733Z,11.10
2022-08-18T23:24:31.113Z,11.77
2022-08-18T23:26:59.278Z,11.35
2022-08-18T23:29:26.799Z,11.63
2022-08-18T23:31:54.310Z,11.10
2022-08-18T23:34:23.194Z,11.30
2022-08-18T23:37:03.511Z,10.85
2022-08-18T23:39:31.520Z,11.37
2022-08-18T23:41:59.142Z,11.35
2022-08-18T23:44:27.851Z,10.75
2022-08-18T23:46:55.873Z,11.10
2022-08-18T23:49:23.451Z,11.40
2022-08-18T23:51:51.689Z,11.18
2022-08-18T23:54:20.886Z,10.98
2022-08-18T23:56:48.484Z,10.52
2022-08-18T23:59:17.134Z,11.15
